createdAt,value
2022-11-05T00:05:24.119Z,10.41
2022-11-05T00:20:27.589Z,10.34
2022-11-05T00:35:30.762Z,10.30
2022-11-05T00:50:34.693Z,10.20
2022-11-05T01:05:53.799Z,10.18
2022-11-05T01:20:57.033Z,10.12
2022-11-05T01:36:00.176Z,10.16
2022-11-05T01:51:09.285Z,10.13
2022-11-05T02:06:16.370Z,10.10
2022-11-05T02:21:34.719Z,10.03
2022-11-05T02:36:49.854Z,10.06
2022-11-05T02:51:58.673Z,10.01
2022-11-05T03:07:15.883Z,9.98
2022-11-05T03:22:26.229Z,10.00
2022-11-05T03:37:37.781Z,9.89
2022-11-05T03:52:48.405Z,9.96
2022-11-05T04:08:14.263Z,9.98
2022-11-05T04:23:36.667Z,9.98
2022-11-05T04:38:40.834Z,10.05
2022-11-05T04:53:44.531Z,10.15
2022-11-05T05:08:49.640Z,10.18
2022-11-05T05:23:52.964Z,10.22
2022-11-05T05:38:57.114Z,10.27
2022-11-05T05:54:00.733Z,10.27
2022-11-05T06:09:04.612Z,10.35
2022-11-05T06:24:08.439Z,10.39
2022-11-05T06:39:13.124Z,10.47
2022-11-05T06:54:22.667Z,10.59
2022-11-05T07:09:26.971Z,10.60
2022-11-05T07:24:30.102Z,10.62
2022-11-05T07:39:33.244Z,10.63
2022-11-05T07:54:36.662Z,10.71
2022-11-05T08:09:40.327Z,10.88
2022-11-05T08:24:43.879Z,11.00
2022-11-05T08:39:47.013Z,11.15
2022-11-05T08:54:50.819Z,11.31
2022-11-05T09:09:54.881Z,11.42
2022-11-05T09:24:58.518Z,11.49
2022-11-05T09:40:01.895Z,11.65
2022-11-05T09:55:20.995Z,11.73
2022-11-05T10:10:39.401Z,11.79
2022-11-05T10:25:47.644Z,11.98
2022-11-05T10:41:12.909Z,11.91
2022-11-05T10:56:34.882Z,12.00
2022-11-05T11:11:42.020Z,12.19
2022-11-05T11:26:45.588Z,12.18
2022-11-05T11:41:59.091Z,12.43
2022-11-05T11:57:02.565Z,12.54
2022-11-05T12:12:13.382Z,12.41
2022-11-05T12:27:31.099Z,12.30
2022-11-05T12:42:43.699Z,12.27
2022-11-05T12:57:52.228Z,12.26
2022-11-05T13:13:18.705Z,12.18
2022-11-05T13:28:47.027Z,12.19
2022-11-05T13:44:01.017Z,12.15
2022-11-05T13:59:32.828Z,12.06
2022-11-05T14:14:54.503Z,12.06
2022-11-05T14:30:00.992Z,12.02
2022-11-05T14:45:25.858Z,11.93
2022-11-05T15:00:30.235Z,11.79
2022-11-05T15:15:47.529Z,11.68
2022-11-05T15:31:02.867Z,11.64
2022-11-05T15:46:20.619Z,11.51
2022-11-05T16:01:29.870Z,11.44
2022-11-05T16:16:34.906Z,11.39
2022-11-05T16:31:39.563Z,11.43
2022-11-05T16:46:46.659Z,11.44
2022-11-05T17:01:55.528Z,11.34
2022-11-05T17:17:02.622Z,11.39
2022-11-05T17:32:07.121Z,11.25
2022-11-05T17:47:10.681Z,11.29
2022-11-05T18:02:14.830Z,11.27
2022-11-05T18:17:18.460Z,11.27
2022-11-05T18:32:21.823Z,11.29
2022-11-05T18:47:25.162Z,11.29
2022-11-05T19:02:29.331Z,11.26
2022-11-05T19:17:34.385Z,11.24
2022-11-05T19:32:38.025Z,11.16
2022-11-05T19:47:41.840Z,11.09
2022-11-05T20:02:48.224Z,10.96
2022-11-05T20:17:53.469Z,10.88
2022-11-05T20:32:58.660Z,10.78
2022-11-05T20:48:03.958Z,10.63
2022-11-05T21:03:08.039Z,10.42
2022-11-05T21:18:12.520Z,10.29
2022-11-05T21:33:18.839Z,10.14
2022-11-05T21:48:23.350Z,9.97
2022-11-05T22:03:26.898Z,9.84
2022-11-05T22:18:30.991Z,9.60
2022-11-05T22:33:34.328Z,9.52
2022-11-05T22:48:39.850Z,9.10
2022-11-05T23:03:45.170Z,8.84
2022-11-05T23:19:07.137Z,8.45
2022-11-05T23:34:10.325Z,8.05
2022-11-05T23:49:13.744Z,7.77
